Time;durP1;ratioP1;P1;durP2;ratioP2;P2;SDS_P1;SDS_P2;PMS_P1;PMS_P2;Temp;Humidity;BMP_temperature;BMP_pressure;BME280_temperature;BME280_humidity;BME280_pressure;Samples;Min_cycle;Max_cycle;Signal;HPM_P1;HPM_P2
2022/07/22 00:00:15;;;;;;;7.80;6.43;;;32.40;1.00;;;;;;5144383;27;20011;-50
2022/07/22 00:02:41;;;;;;;6.30;5.75;;;32.40;1.00;;;;;;5138974;27;20380;-51
2022/07/22 00:05:09;;;;;;;5.97;5.53;;;32.50;1.00;;;;;;5140846;27;20491;-54
2022/07/22 00:07:34;;;;;;;6.22;5.72;;;32.40;1.00;;;;;;5142539;27;20466;-54
2022/07/22 00:10:00;;;;;;;5.90;5.35;;;32.50;1.00;;;;;;5140209;27;20158;-53
2022/07/22 00:12:26;;;;;;;7.05;6.00;;;32.40;1.00;;;;;;5144108;27;20023;-54
2022/07/22 00:14:51;;;;;;;6.18;5.57;;;32.50;1.00;;;;;;5146802;27;20464;-52
2022/07/22 00:17:17;;;;;;;8.82;5.63;;;32.50;1.00;;;;;;5139938;27;20244;-53
2022/07/22 00:19:43;;;;;;;5.38;4.88;;;32.30;1.00;;;;;;5141861;27;20023;-51
2022/07/22 00:22:08;;;;;;;6.40;5.57;;;32.30;1.00;;;;;;5143352;27;20409;-52
2022/07/22 00:24:34;;;;;;;7.30;5.00;;;32.30;1.00;;;;;;5143876;27;20037;-48
2022/07/22 00:27:00;;;;;;;5.78;5.18;;;32.30;1.00;;;;;;5144113;27;20025;-51
2022/07/22 00:29:25;;;;;;;6.43;5.82;;;32.30;1.00;;;;;;5143045;27;20092;-49
2022/07/22 00:31:51;;;;;;;6.10;5.50;;;32.30;1.00;;;;;;5145394;27;20027;-50
2022/07/22 00:34:16;;;;;;;5.80;5.28;;;32.30;1.00;;;;;;5148222;27;20022;-48
2022/07/22 00:36:42;;;;;;;6.93;5.57;;;32.30;1.00;;;;;;5143751;27;20426;-51
2022/07/22 00:39:08;;;;;;;7.20;5.55;;;32.30;1.00;;;;;;5143049;27;20430;-49
2022/07/22 00:41:34;;;;;;;6.88;5.63;;;32.30;1.00;;;;;;5143895;27;20075;-48
2022/07/22 00:44:02;;;;;;;5.90;5.47;;;32.30;1.00;;;;;;5144125;27;20038;-48
2022/07/22 00:46:29;;;;;;;8.57;5.75;;;32.20;1.00;;;;;;5140859;27;20481;-49
2022/07/22 00:48:55;;;;;;;6.05;5.50;;;32.20;1.00;;;;;;5145549;27;20114;-52
2022/07/22 00:51:22;;;;;;;6.88;5.10;;;32.20;1.00;;;;;;5145140;27;20469;-54
2022/07/22 00:53:49;;;;;;;5.65;5.15;;;32.30;1.00;;;;;;5144619;27;20027;-53
2022/07/22 00:56:16;;;;;;;5.70;5.22;;;32.20;1.00;;;;;;5139118;27;20027;-49
2022/07/22 00:58:42;;;;;;;7.15;6.43;;;32.20;1.00;;;;;;5142593;27;20079;-49
2022/07/22 01:01:07;;;;;;;8.60;6.35;;;32.30;1.00;;;;;;5143013;27;20031;-50
2022/07/22 01:03:33;;;;;;;8.77;7.15;;;32.20;1.00;;;;;;5136621;27;20079;-50
2022/07/22 01:05:59;;;;;;;11.32;7.35;;;32.30;1.00;;;;;;5143489;27;20511;-51
2022/07/22 01:08:24;;;;;;;10.50;7.95;;;32.10;1.00;;;;;;5141112;27;20529;-51
2022/07/22 01:10:51;;;;;;;8.40;7.45;;;32.00;1.00;;;;;;5141980;27;20038;-50
2022/07/22 01:13:16;;;;;;;9.88;6.60;;;32.00;1.00;;;;;;5142797;27;20552;-46
2022/07/22 01:15:42;;;;;;;7.97;7.13;;;32.00;1.00;;;;;;5138187;27;20105;-48
2022/07/22 01:18:07;;;;;;;8.40;6.60;;;31.90;1.00;;;;;;5139314;27;20035;-47
2022/07/22 01:20:35;;;;;;;7.68;6.78;;;31.90;1.00;;;;;;5142239;27;20425;-47
2022/07/22 01:23:00;;;;;;;10.93;7.55;;;31.90;1.00;;;;;;5141839;27;20023;-47
2022/07/22 01:25:26;;;;;;;10.02;6.57;;;31.80;1.00;;;;;;5144989;27;20037;-51
2022/07/22 01:27:52;;;;;;;10.50;6.35;;;31.70;1.00;;;;;;5142783;27;20074;-52
2022/07/22 01:30:17;;;;;;;7.10;5.95;;;31.80;1.00;;;;;;5140592;27;20038;-49
2022/07/22 01:32:43;;;;;;;8.07;6.32;;;31.90;1.00;;;;;;5140087;27;20405;-51
2022/07/22 01:35:09;;;;;;;7.05;6.07;;;32.00;1.00;;;;;;5141494;27;20023;-49
2022/07/22 01:37:34;;;;;;;8.88;6.85;;;32.00;1.00;;;;;;5145211;27;20144;-51
2022/07/22 01:40:00;;;;;;;9.55;6.55;;;31.90;1.00;;;;;;5141711;27;20023;-50
2022/07/22 01:42:26;;;;;;;8.95;6.55;;;32.00;1.00;;;;;;5145829;27;20318;-49
2022/07/22 01:44:52;;;;;;;9.20;5.65;;;32.00;1.00;;;;;;5144790;27;20041;-52
2022/07/22 01:47:17;;;;;;;7.05;5.90;;;31.90;1.00;;;;;;5138359;27;20095;-50
2022/07/22 01:49:43;;;;;;;11.45;6.40;;;31.70;1.00;;;;;;5143124;27;20334;-52
2022/07/22 01:52:09;;;;;;;7.53;6.63;;;31.80;1.00;;;;;;5143787;27;20031;-48
2022/07/22 01:54:35;;;;;;;7.32;5.75;;;31.80;1.00;;;;;;5142934;27;20042;-51
2022/07/22 01:57:01;;;;;;;7.90;5.45;;;31.80;1.00;;;;;;5145704;27;20103;-50
2022/07/22 01:59:27;;;;;;;5.95;5.38;;;31.80;1.00;;;;;;5143685;27;20035;-46
2022/07/22 02:01:52;;;;;;;6.53;5.45;;;31.80;1.00;;;;;;5142186;27;20034;-52
2022/07/22 02:04:18;;;;;;;8.30;5.10;;;31.70;1.00;;;;;;5142255;27;20387;-51
2022/07/22 02:06:43;;;;;;;10.60;6.55;;;31.60;1.00;;;;;;5142199;27;20033;-51
2022/07/22 02:09:09;;;;;;;10.15;5.75;;;31.70;1.00;;;;;;5144082;27;20034;-51
2022/07/22 02:11:35;;;;;;;8.75;5.40;;;31.60;1.00;;;;;;5142943;27;20420;-50
2022/07/22 02:14:01;;;;;;;7.63;6.53;;;31.60;1.00;;;;;;5142734;27;20445;-48
2022/07/22 02:16:27;;;;;;;9.25;5.47;;;31.70;1.00;;;;;;5144734;27;20031;-47
2022/07/22 02:18:53;;;;;;;8.07;5.13;;;31.70;1.00;;;;;;5146615;27;20030;-50
2022/07/22 02:21:18;;;;;;;6.75;6.15;;;31.80;1.00;;;;;;5142169;27;20023;-49
2022/07/22 02:23:44;;;;;;;9.27;6.18;;;31.70;1.00;;;;;;5143767;27;20023;-49
2022/07/22 02:26:10;;;;;;;6.53;5.15;;;31.70;1.00;;;;;;5142047;27;20058;-47
2022/07/22 02:28:36;;;;;;;10.30;5.30;;;31.70;1.00;;;;;;5145383;27;20033;-48
2022/07/22 02:31:01;;;;;;;9.40;5.93;;;31.40;1.00;;;;;;5141526;27;20102;-47
2022/07/22 02:33:29;;;;;;;7.85;5.22;;;31.30;1.00;;;;;;5143865;27;20507;-49
2022/07/22 02:35:55;;;;;;;7.13;5.63;;;31.30;1.00;;;;;;5145069;27;20788;-48
2022/07/22 02:38:21;;;;;;;7.57;5.88;;;31.40;1.00;;;;;;5143776;27;20016;-48
2022/07/22 02:40:46;;;;;;;6.43;5.80;;;31.40;1.00;;;;;;5147635;27;20428;-48
2022/07/22 02:43:12;;;;;;;8.35;5.95;;;31.30;1.00;;;;;;5137102;27;20031;-53
2022/07/22 02:45:38;;;;;;;8.40;6.45;;;31.30;1.00;;;;;;5142225;27;20038;-51
2022/07/22 02:48:04;;;;;;;6.45;5.38;;;31.30;1.00;;;;;;5144775;27;20395;-48
2022/07/22 02:50:30;;;;;;;9.05;5.10;;;31.30;1.00;;;;;;5139164;27;20035;-52
2022/07/22 02:52:55;;;;;;;8.27;5.25;;;31.30;1.00;;;;;;5141679;27;20079;-51
2022/07/22 02:55:21;;;;;;;10.23;6.15;;;31.30;1.00;;;;;;5142208;27;20564;-53
2022/07/22 02:57:46;;;;;;;9.02;5.65;;;31.20;1.00;;;;;;5141348;27;20019;-52
2022/07/22 03:00:14;;;;;;;5.65;5.05;;;31.20;1.00;;;;;;5135447;27;20118;-53
2022/07/22 03:02:41;;;;;;;8.48;5.63;;;31.10;1.00;;;;;;5141195;27;20352;-52
2022/07/22 03:05:07;;;;;;;9.45;5.43;;;31.10;1.00;;;;;;5144044;27;20031;-48
2022/07/22 03:07:33;;;;;;;10.23;5.60;;;31.10;1.00;;;;;;5139482;27;20054;-47
2022/07/22 03:09:59;;;;;;;8.15;5.10;;;31.20;1.00;;;;;;5142626;27;23202;-48
2022/07/22 03:12:24;;;;;;;10.60;5.45;;;31.30;1.00;;;;;;5142655;27;20551;-49
2022/07/22 03:14:51;;;;;;;6.28;5.20;;;31.20;1.00;;;;;;5140006;27;20023;-53
2022/07/22 03:17:17;;;;;;;10.45;4.93;;;31.10;1.00;;;;;;5141932;27;20054;-52
2022/07/22 03:19:42;;;;;;;7.97;5.15;;;31.20;1.00;;;;;;5140680;27;20478;-51
2022/07/22 03:22:08;;;;;;;8.25;5.68;;;31.20;1.00;;;;;;5141445;27;20083;-49
2022/07/22 03:24:34;;;;;;;7.60;5.40;;;31.10;1.00;;;;;;5140018;27;20046;-52
2022/07/22 03:27:00;;;;;;;9.35;5.25;;;31.10;1.00;;;;;;5140434;27;20065;-51
2022/07/22 03:29:25;;;;;;;6.10;4.97;;;31.10;1.00;;;;;;5139477;27;20483;-52
2022/07/22 03:31:51;;;;;;;5.28;4.70;;;31.20;1.00;;;;;;5140663;27;20027;-50
2022/07/22 03:34:16;;;;;;;9.65;5.35;;;31.20;1.00;;;;;;5138114;27;20114;-49
2022/07/22 03:36:42;;;;;;;9.20;5.15;;;31.20;1.00;;;;;;5143336;27;20057;-49
2022/07/22 03:39:08;;;;;;;9.35;5.53;;;31.10;1.00;;;;;;5143854;27;20464;-49
2022/07/22 03:41:33;;;;;;;7.53;5.00;;;31.10;1.00;;;;;;5144560;27;20476;-48
2022/07/22 03:43:59;;;;;;;7.70;5.13;;;31.10;1.00;;;;;;5143040;27;20461;-49
2022/07/22 03:46:25;;;;;;;5.20;4.80;;;31.10;1.00;;;;;;5140999;27;20032;-50
2022/07/22 03:48:50;;;;;;;8.38;4.57;;;31.00;1.00;;;;;;5148466;27;20483;-53
2022/07/22 03:51:16;;;;;;;8.00;4.75;;;30.90;1.00;;;;;;5144499;27;20034;-49
2022/07/22 03:53:41;;;;;;;6.57;4.50;;;31.00;1.00;;;;;;5142435;27;20103;-49
2022/07/22 03:56:07;;;;;;;7.38;4.72;;;31.10;1.00;;;;;;5144883;27;20042;-50
2022/07/22 03:58:33;;;;;;;9.30;4.53;;;31.00;1.00;;;;;;5142938;27;20421;-50
2022/07/22 04:00:58;;;;;;;8.43;5.25;;;31.10;1.00;;;;;;5139586;27;20027;-51
2022/07/22 04:03:24;;;;;;;7.07;4.88;;;31.10;1.00;;;;;;5143199;27;20036;-48
2022/07/22 04:05:50;;;;;;;5.95;5.15;;;31.00;1.00;;;;;;5145184;27;20070;-51
2022/07/22 04:08:17;;;;;;;6.13;4.40;;;31.10;1.00;;;;;;5142956;27;20384;-47
2022/07/22 04:10:43;;;;;;;5.53;4.82;;;31.10;1.00;;;;;;5146468;27;20054;-49
2022/07/22 04:13:09;;;;;;;7.40;5.13;;;31.10;1.00;;;;;;5140292;27;20026;-49
2022/07/22 04:15:35;;;;;;;6.32;4.88;;;31.20;1.00;;;;;;5144033;27;20027;-47
2022/07/22 04:18:00;;;;;;;9.90;5.80;;;31.20;1.00;;;;;;5146084;27;20031;-48
2022/07/22 04:20:27;;;;;;;5.53;4.88;;;31.10;1.00;;;;;;5141920;27;20027;-47
2022/07/22 04:22:53;;;;;;;10.25;5.35;;;31.10;1.00;;;;;;5140504;27;20103;-49
2022/07/22 04:25:18;;;;;;;8.13;5.53;;;31.00;1.00;;;;;;5143744;27;20480;-47
2022/07/22 04:27:44;;;;;;;9.65;5.05;;;31.00;1.00;;;;;;5141546;27;20022;-48
2022/07/22 04:30:10;;;;;;;7.15;5.47;;;31.10;1.00;;;;;;5145045;27;20431;-51
2022/07/22 04:32:36;;;;;;;7.50;5.57;;;31.20;1.00;;;;;;5143805;27;20019;-51
2022/07/22 04:35:01;;;;;;;8.90;5.30;;;31.10;1.00;;;;;;5143663;27;20489;-48
2022/07/22 04:37:27;;;;;;;5.93;4.97;;;31.00;1.00;;;;;;5141189;27;21030;-49
2022/07/22 04:39:53;;;;;;;7.32;5.18;;;31.00;1.00;;;;;;5143126;27;20023;-50
2022/07/22 04:42:18;;;;;;;5.32;4.90;;;31.00;1.00;;;;;;5145970;27;20023;-50
2022/07/22 04:44:44;;;;;;;8.25;5.40;;;31.00;1.00;;;;;;5145426;27;20051;-49
2022/07/22 04:47:11;;;;;;;10.57;5.88;;;31.00;1.00;;;;;;5147226;27;20395;-47
2022/07/22 04:49:37;;;;;;;8.25;5.60;;;30.90;1.00;;;;;;5144074;27;20033;-52
2022/07/22 04:52:03;;;;;;;10.10;6.57;;;31.00;1.00;;;;;;5144599;27;20047;-50
2022/07/22 04:54:28;;;;;;;8.82;6.50;;;31.00;1.00;;;;;;5141794;27;20018;-46
2022/07/22 04:56:54;;;;;;;10.00;6.00;;;30.90;1.00;;;;;;5143783;27;20120;-50
2022/07/22 04:59:19;;;;;;;8.95;6.38;;;30.90;1.00;;;;;;5141958;27;20030;-48
2022/07/22 05:01:45;;;;;;;8.35;6.25;;;30.90;1.00;;;;;;5143543;27;20019;-51
2022/07/22 05:04:11;;;;;;;7.28;5.63;;;30.90;1.00;;;;;;5141859;27;20037;-50
2022/07/22 05:06:36;;;;;;;7.45;5.90;;;30.90;1.00;;;;;;5145343;27;20037;-51
2022/07/22 05:09:03;;;;;;;6.00;5.40;;;30.70;1.00;;;;;;5146521;27;20053;-48
2022/07/22 05:11:28;;;;;;;7.60;5.45;;;30.80;1.00;;;;;;5143688;27;20054;-50
2022/07/22 05:13:54;;;;;;;6.30;5.00;;;30.90;1.00;;;;;;5142241;27;20534;-50
2022/07/22 05:16:19;;;;;;;8.02;4.93;;;31.00;1.00;;;;;;5146147;27;20341;-49
2022/07/22 05:18:45;;;;;;;7.10;5.32;;;30.80;1.00;;;;;;5143032;27;20015;-54
2022/07/22 05:21:11;;;;;;;8.02;4.55;;;30.90;1.00;;;;;;5144843;27;20026;-49
2022/07/22 05:23:36;;;;;;;7.82;5.32;;;31.00;1.00;;;;;;5142550;27;20022;-46
2022/07/22 05:26:04;;;;;;;7.10;4.47;;;30.90;1.00;;;;;;5140976;27;20042;-48
2022/07/22 05:28:30;;;;;;;8.90;4.78;;;30.90;1.00;;;;;;5139450;27;20560;-50
2022/07/22 05:30:55;;;;;;;5.65;4.07;;;30.80;1.00;;;;;;5145013;27;20023;-49
2022/07/22 05:33:21;;;;;;;4.82;4.32;;;30.90;1.00;;;;;;5143079;27;20356;-50
2022/07/22 05:35:47;;;;;;;5.55;4.97;;;30.90;1.00;;;;;;5143414;27;20039;-50
2022/07/22 05:38:12;;;;;;;8.00;4.60;;;30.90;1.00;;;;;;5139088;27;20051;-49
2022/07/22 05:40:38;;;;;;;6.72;5.32;;;30.90;1.00;;;;;;5149199;27;20030;-46
2022/07/22 05:43:04;;;;;;;5.60;5.05;;;30.90;1.00;;;;;;5148637;27;20023;-46
2022/07/22 05:45:30;;;;;;;9.35;4.78;;;31.00;1.00;;;;;;5143768;27;20034;-48
2022/07/22 05:47:55;;;;;;;7.80;4.63;;;30.90;1.00;;;;;;5138634;27;20015;-54
2022/07/22 05:50:21;;;;;;;5.75;4.72;;;30.80;1.00;;;;;;5140054;27;20057;-48
2022/07/22 05:52:47;;;;;;;6.35;4.43;;;30.90;1.00;;;;;;5138573;27;20030;-50
2022/07/22 05:55:12;;;;;;;5.72;4.22;;;30.90;1.00;;;;;;5140786;27;20030;-51
2022/07/22 05:57:38;;;;;;;8.40;4.57;;;31.00;1.00;;;;;;5136209;27;20027;-48
2022/07/22 06:00:05;;;;;;;8.18;4.80;;;31.10;1.00;;;;;;5140514;27;20033;-49
2022/07/22 06:02:31;;;;;;;4.75;4.25;;;30.90;1.00;;;;;;5138537;27;20161;-51
2022/07/22 06:04:56;;;;;;;5.97;3.85;;;31.00;1.00;;;;;;5138623;27;20058;-48
2022/07/22 06:07:22;;;;;;;4.78;4.10;;;31.10;1.00;;;;;;5138972;27;20031;-47
2022/07/22 06:09:47;;;;;;;6.47;4.13;;;31.10;1.00;;;;;;5142058;27;20027;-47
2022/07/22 06:12:13;;;;;;;4.63;4.05;;;31.00;1.00;;;;;;5141726;27;20062;-50
2022/07/22 06:14:39;;;;;;;4.90;4.38;;;31.10;1.00;;;;;;5143318;27;20021;-48
2022/07/22 06:17:04;;;;;;;5.90;4.40;;;31.00;1.00;;;;;;5118349;27;20027;-50
2022/07/22 06:19:30;;;;;;;4.40;3.83;;;31.00;1.00;;;;;;5142393;27;20407;-46
2022/07/22 06:21:56;;;;;;;4.85;3.78;;;31.10;1.00;;;;;;5142658;27;20015;-52
2022/07/22 06:24:22;;;;;;;7.50;4.30;;;31.10;1.00;;;;;;5141840;27;20027;-49
2022/07/22 06:26:47;;;;;;;4.13;3.72;;;31.10;1.00;;;;;;5144606;27;20053;-48
2022/07/22 06:29:13;;;;;;;10.38;4.03;;;30.90;1.00;;;;;;5137745;27;20461;-63
2022/07/22 06:31:38;;;;;;;5.03;4.10;;;30.70;1.00;;;;;;5146114;27;20388;-64
2022/07/22 06:34:05;;;;;;;6.03;3.70;;;30.60;1.00;;;;;;5140925;27;20083;-62
2022/07/22 06:36:31;;;;;;;4.40;3.45;;;30.50;1.00;;;;;;5142575;27;20042;-65
2022/07/22 06:38:57;;;;;;;4.72;3.67;;;30.60;1.00;;;;;;5139093;27;20030;-62
2022/07/22 06:41:23;;;;;;;6.38;3.85;;;30.60;1.00;;;;;;5141759;27;20039;-62
2022/07/22 06:43:48;;;;;;;7.70;4.35;;;30.60;1.00;;;;;;5141290;27;20491;-59
2022/07/22 06:46:14;;;;;;;4.78;3.83;;;30.60;1.00;;;;;;5145416;27;20129;-61
2022/07/22 06:48:40;;;;;;;4.53;3.63;;;30.60;1.00;;;;;;5141962;27;20025;-62
2022/07/22 06:51:05;;;;;;;5.45;3.85;;;30.60;1.00;;;;;;5139187;27;20038;-62
2022/07/22 06:53:32;;;;;;;5.20;3.83;;;30.60;1.00;;;;;;5142620;27;20121;-53
2022/07/22 06:55:58;;;;;;;6.80;4.10;;;30.60;1.00;;;;;;5138008;27;20107;-53
2022/07/22 06:58:23;;;;;;;5.90;4.50;;;30.60;1.00;;;;;;5142291;27;20050;-53
2022/07/22 07:00:49;;;;;;;4.22;3.63;;;30.60;1.00;;;;;;5144212;27;20384;-57
2022/07/22 07:03:15;;;;;;;4.65;4.20;;;30.70;1.00;;;;;;5145109;27;20023;-56
2022/07/22 07:05:40;;;;;;;7.30;3.65;;;30.60;1.00;;;;;;5140658;27;20027;-54
2022/07/22 07:08:06;;;;;;;9.10;4.82;;;30.70;1.00;;;;;;5138973;27;20034;-55
2022/07/22 07:10:31;;;;;;;4.88;4.32;;;30.80;1.00;;;;;;5143747;27;20918;-51
2022/07/22 07:12:58;;;;;;;6.82;4.85;;;30.80;1.00;;;;;;5142945;27;20095;-52
2022/07/22 07:15:24;;;;;;;5.18;4.03;;;30.90;1.00;;;;;;5143183;27;20050;-56
2022/07/22 07:17:51;;;;;;;6.93;4.28;;;30.80;1.00;;;;;;5140545;27;20027;-51
2022/07/22 07:20:16;;;;;;;11.80;4.35;;;30.90;1.00;;;;;;5139620;27;20023;-52
2022/07/22 07:22:42;;;;;;;8.02;4.40;;;30.80;1.00;;;;;;5141164;27;20027;-53
2022/07/22 07:25:09;;;;;;;4.88;3.97;;;30.90;1.00;;;;;;5138845;27;20447;-54
2022/07/22 07:27:35;;;;;;;4.82;4.43;;;31.20;1.00;;;;;;5142238;27;20392;-53
2022/07/22 07:30:00;;;;;;;5.25;4.30;;;31.40;1.00;;;;;;5136903;27;20019;-54
2022/07/22 07:32:26;;;;;;;4.82;3.90;;;31.50;1.00;;;;;;5144703;27;20337;-55
2022/07/22 07:34:52;;;;;;;5.30;4.30;;;31.50;1.00;;;;;;5140322;27;20077;-55
2022/07/22 07:37:17;;;;;;;4.97;4.15;;;31.60;1.00;;;;;;5141065;27;20073;-51
2022/07/22 07:39:43;;;;;;;4.43;4.05;;;31.70;1.00;;;;;;5140185;27;20045;-54
2022/07/22 07:42:09;;;;;;;6.50;4.10;;;31.70;1.00;;;;;;5141890;27;20337;-52
2022/07/22 07:44:34;;;;;;;6.00;4.05;;;31.80;1.00;;;;;;5140052;27;20023;-54
2022/07/22 07:47:00;;;;;;;6.85;4.68;;;31.80;1.00;;;;;;5143355;27;20049;-56
2022/07/22 07:49:25;;;;;;;7.63;4.40;;;31.90;1.00;;;;;;5141732;27;20573;-54
2022/07/22 07:51:51;;;;;;;5.88;4.47;;;32.00;1.00;;;;;;5138886;27;20515;-50
2022/07/22 07:54:17;;;;;;;5.88;4.28;;;32.00;1.00;;;;;;5138725;27;20023;-49
2022/07/22 07:56:43;;;;;;;5.32;4.13;;;32.10;1.00;;;;;;5140875;27;20035;-54
2022/07/22 07:59:09;;;;;;;5.60;4.15;;;32.10;1.00;;;;;;5138156;27;20388;-50
2022/07/22 08:01:34;;;;;;;6.90;5.18;;;32.20;1.00;;;;;;5136181;27;20023;-54
2022/07/22 08:04:00;;;;;;;7.03;4.45;;;32.20;1.00;;;;;;5147408;27;20019;-55
2022/07/22 08:06:26;;;;;;;5.90;4.90;;;32.20;1.00;;;;;;5138587;27;20035;-55
2022/07/22 08:08:51;;;;;;;11.98;5.13;;;32.30;1.00;;;;;;5140507;27;20058;-51
2022/07/22 08:11:17;;;;;;;6.60;4.78;;;32.30;1.00;;;;;;5142777;27;20042;-52
2022/07/22 08:13:43;;;;;;;7.55;4.25;;;32.50;1.00;;;;;;5138316;27;20031;-53
2022/07/22 08:16:08;;;;;;;5.50;4.45;;;32.50;1.00;;;;;;5141709;27;20027;-53
2022/07/22 08:18:34;;;;;;;7.18;5.28;;;32.60;1.00;;;;;;5140637;27;20015;-54
2022/07/22 08:20:59;;;;;;;7.47;5.57;;;32.60;1.00;;;;;;5139572;27;20035;-53
2022/07/22 08:23:25;;;;;;;7.18;4.80;;;32.60;1.00;;;;;;5138378;27;20026;-51
2022/07/22 08:25:51;;;;;;;5.47;4.90;;;32.60;1.00;;;;;;5143080;27;20126;-53
2022/07/22 08:28:17;;;;;;;7.53;4.93;;;32.70;1.00;;;;;;5139320;27;20051;-53
2022/07/22 08:30:42;;;;;;;6.78;4.90;;;32.70;1.00;;;;;;5142863;27;20034;-54
2022/07/22 08:33:08;;;;;;;5.95;4.85;;;32.70;1.00;;;;;;5141482;27;20383;-55
2022/07/22 08:35:34;;;;;;;7.88;5.78;;;32.90;1.00;;;;;;5143236;27;20453;-49
2022/07/22 08:38:00;;;;;;;8.85;5.63;;;32.40;1.00;;;;;;5147389;27;20504;-55
2022/07/22 08:40:26;;;;;;;7.55;5.55;;;32.80;1.00;;;;;;5142667;27;20027;-52
2022/07/22 08:42:52;;;;;;;7.18;4.68;;;32.90;1.00;;;;;;5145020;27;20030;-53
2022/07/22 08:45:19;;;;;;;7.68;5.15;;;33.10;1.00;;;;;;5144886;27;20041;-52
2022/07/22 08:47:46;;;;;;;11.45;5.93;;;33.50;1.00;;;;;;5142343;27;20027;-53
2022/07/22 08:50:12;;;;;;;6.03;5.30;;;33.60;1.00;;;;;;5144834;27;20102;-54
2022/07/22 08:52:38;;;;;;;6.72;5.47;;;33.40;1.00;;;;;;5142177;27;20015;-51
2022/07/22 08:55:05;;;;;;;6.93;5.30;;;33.60;1.00;;;;;;5147076;27;20035;-54
2022/07/22 08:57:31;;;;;;;5.60;5.10;;;33.80;1.00;;;;;;5143728;27;20083;-56
2022/07/22 08:59:59;;;;;;;8.02;5.63;;;33.80;1.00;;;;;;5146733;27;20035;-52
2022/07/22 09:02:26;;;;;;;9.38;6.10;;;33.60;1.00;;;;;;5143898;27;20015;-59
2022/07/22 09:05:04;;;;;;;5.50;4.82;;;33.10;1.00;;;;;;5143161;27;20493;-56
2022/07/22 09:07:31;;;;;;;7.88;5.57;;;32.90;1.00;;;;;;5143221;27;20369;-58
2022/07/22 09:10:00;;;;;;;7.07;5.20;;;32.90;1.00;;;;;;5147053;27;20019;-46
2022/07/22 09:12:30;;;;;;;12.57;6.53;;;33.10;1.00;;;;;;5142254;27;20089;-50
2022/07/22 09:14:57;;;;;;;5.85;4.65;;;32.80;1.00;;;;;;5144153;27;20475;-50
2022/07/22 09:17:30;;;;;;;6.28;4.63;;;33.50;1.00;;;;;;5144353;27;20430;-48
2022/07/22 09:19:56;;;;;;;;;;;33.80;1.00;;;;;;5140119;27;20023;-48
2022/07/22 09:22:33;;;;;;;4.28;3.97;;;33.90;1.00;;;;;;5145598;27;19908;-48
2022/07/22 09:25:18;;;;;;;7.30;4.55;;;34.40;1.00;;;;;;5141881;27;20023;-50
2022/07/22 09:27:44;;;;;;;4.75;4.43;;;34.50;1.00;;;;;;5142530;27;20023;-53
2022/07/22 09:30:19;;;;;;;4.57;4.18;;;34.50;1.00;;;;;;5143662;27;20078;-52
2022/07/22 09:32:45;;;;;;;4.25;3.85;;;35.20;1.00;;;;;;5140867;27;20058;-49
2022/07/22 09:35:11;;;;;;;5.60;4.07;;;34.90;1.00;;;;;;5145025;27;20472;-52
2022/07/22 09:37:48;;;;;;;6.25;4.28;;;35.10;1.00;;;;;;5144240;27;20054;-50
2022/07/22 09:40:17;;;;;;;8.55;4.45;;;35.20;1.00;;;;;;5139173;27;20107;-53
2022/07/22 09:42:51;;;;;;;6.35;5.43;;;35.40;1.00;;;;;;5143780;27;20113;-50
2022/07/22 09:45:18;;;;;;;6.32;4.28;;;35.40;1.00;;;;;;5143697;27;20407;-53
2022/07/22 09:47:44;;;;;;;7.07;4.70;;;35.30;1.00;;;;;;5136820;27;20083;-51
2022/07/22 09:50:19;;;;;;;9.10;4.22;;;35.30;1.00;;;;;;5145806;27;20023;-52
2022/07/22 09:52:46;;;;;;;7.07;5.10;;;35.30;1.00;;;;;;5140592;27;20079;-51
2022/07/22 09:55:15;;;;;;;5.72;4.85;;;35.60;1.00;;;;;;5146860;27;20051;-52
2022/07/22 09:57:41;;;;;;;6.50;4.88;;;35.90;1.00;;;;;;5141162;27;20098;-54
2022/07/22 10:00:09;;;;;;;9.75;4.70;;;36.10;1.00;;;;;;5145280;27;20221;-52
2022/07/22 10:02:51;;;;;;;5.63;4.20;;;35.90;1.00;;;;;;5141244;27;20023;-52
2022/07/22 10:05:22;;;;;;;4.65;4.28;;;35.90;1.00;;;;;;5140622;27;20027;-51
2022/07/22 10:07:48;;;;;;;8.20;7.38;;;35.80;1.00;;;;;;5140552;27;20353;-48
2022/07/22 10:10:17;;;;;;;7.10;6.38;;;36.20;1.00;;;;;;5142870;27;20027;-52
2022/07/22 10:12:45;;;;;;;7.32;5.22;;;36.20;1.00;;;;;;5142251;27;20084;-53
2022/07/22 10:15:12;;;;;;;6.03;5.63;;;36.60;1.00;;;;;;5138759;27;20042;-52
2022/07/22 10:17:41;;;;;;;6.18;5.28;;;36.50;1.00;;;;;;5144969;27;20054;-53
2022/07/22 10:20:08;;;;;;;5.38;4.53;;;37.20;1.00;;;;;;5142880;27;20071;-53
2022/07/22 10:22:42;;;;;;;5.63;4.45;;;37.10;1.00;;;;;;5136389;27;20039;-54
2022/07/22 10:25:10;;;;;;;5.22;4.80;;;36.50;1.00;;;;;;5140472;27;20030;-50
2022/07/22 10:27:55;;;;;;;5.22;4.80;;;36.60;1.00;;;;;;5142777;27;20499;-52
2022/07/22 10:30:40;;;;;;;8.35;4.65;;;36.30;1.00;;;;;;5146921;27;20381;-49
2022/07/22 10:33:11;;;;;;;6.85;5.03;;;36.80;1.00;;;;;;5139431;27;20037;-51
2022/07/22 10:36:01;;;;;;;6.45;5.30;;;37.40;1.00;;;;;;5140774;27;20114;-50
2022/07/22 10:38:28;;;;;;;7.45;4.78;;;36.60;1.00;;;;;;5138120;27;20039;-52
2022/07/22 10:40:56;;;;;;;5.38;4.95;;;36.10;1.00;;;;;;5141353;27;20039;-53
2022/07/22 10:43:29;;;;;;;4.38;4.05;;;35.90;1.00;;;;;;5141385;27;20070;-48
2022/07/22 10:46:02;;;;;;;6.70;4.90;;;36.00;1.00;;;;;;5138672;27;20038;-51
2022/07/22 10:48:37;;;;;;;6.40;5.38;;;35.90;1.00;;;;;;5136405;27;20125;-54
2022/07/22 10:51:13;;;;;;;5.80;5.03;;;35.90;1.00;;;;;;5141915;27;20042;-54
2022/07/22 10:53:43;;;;;;;7.18;4.53;;;35.80;1.00;;;;;;5142914;27;20544;-53
2022/07/22 10:56:13;;;;;;;5.47;4.28;;;36.00;1.00;;;;;;5143359;27;20023;-52
2022/07/22 10:58:52;;;;;;;4.63;4.22;;;36.10;1.00;;;;;;5139741;27;20039;-52
2022/07/22 11:01:20;;;;;;;5.40;4.90;;;36.00;1.00;;;;;;5140300;27;20042;-50
2022/07/22 11:03:47;;;;;;;10.85;5.93;;;36.00;1.00;;;;;;5135048;27;20118;-56
2022/07/22 11:06:24;;;;;;;5.18;4.78;;;36.10;1.00;;;;;;5145356;27;21863;-52
2022/07/22 11:08:58;;;;;;;5.32;4.22;;;36.20;1.00;;;;;;5138617;27;20047;-52
2022/07/22 11:11:38;;;;;;;6.10;4.85;;;36.40;1.00;;;;;;5137963;27;20023;-53
2022/07/22 11:14:30;;;;;;;7.38;4.78;;;36.40;1.00;;;;;;5141956;27;20031;-54
2022/07/22 11:17:06;;;;;;;5.13;4.63;;;36.50;1.00;;;;;;5145106;27;20656;-53
2022/07/22 11:19:32;;;;;;;6.18;4.60;;;36.60;1.00;;;;;;5139134;27;20050;-51
2022/07/22 11:22:04;;;;;;;6.40;5.05;;;36.70;1.00;;;;;;5135824;27;20030;-54
2022/07/22 11:24:30;;;;;;;5.47;5.05;;;36.80;1.00;;;;;;5137369;27;20038;-51
2022/07/22 11:26:58;;;;;;;6.13;5.05;;;36.90;1.00;;;;;;5146529;27;20034;-49
2022/07/22 11:29:44;;;;;;;6.25;5.18;;;36.70;1.00;;;;;;5143591;27;20101;-51
2022/07/22 11:32:11;;;;;;;6.25;4.78;;;36.60;1.00;;;;;;5139975;27;20159;-52
2022/07/22 11:34:42;;;;;;;6.60;5.50;;;36.70;1.00;;;;;;5140721;27;20495;-54
2022/07/22 11:37:08;;;;;;;8.82;5.30;;;37.00;1.00;;;;;;5141826;27;20467;-54
2022/07/22 11:39:35;;;;;;;5.55;5.22;;;37.50;1.00;;;;;;5142997;27;20075;-54
2022/07/22 11:42:01;;;;;;;7.13;5.60;;;38.20;1.00;;;;;;5138880;27;20684;-53
2022/07/22 11:44:35;;;;;;;8.00;6.07;;;38.60;1.00;;;;;;5142806;27;20069;-53
2022/07/22 11:47:00;;;;;;;10.05;6.20;;;38.70;1.00;;;;;;5138933;27;20164;-52
2022/07/22 11:49:33;;;;;;;7.13;6.22;;;38.90;1.00;;;;;;5136999;27;20129;-51
2022/07/22 11:51:59;;;;;;;5.82;5.43;;;40.70;1.00;;;;;;5142003;27;20054;-52
2022/07/22 11:54:25;;;;;;;5.85;5.35;;;42.40;1.00;;;;;;5140450;27;20195;-50
2022/07/22 11:56:51;;;;;;;11.32;6.22;;;43.20;1.00;;;;;;5141465;27;20519;-51
2022/07/22 11:59:19;;;;;;;6.30;5.68;;;43.70;1.00;;;;;;5141869;27;20440;-54
2022/07/22 12:01:47;;;;;;;8.45;5.65;;;43.60;1.00;;;;;;5146968;27;20724;-51
2022/07/22 12:04:17;;;;;;;7.82;6.05;;;43.90;1.00;;;;;;5142778;27;20397;-52
2022/07/22 12:06:44;;;;;;;7.80;7.20;;;45.50;1.00;;;;;;5138606;27;20042;-49
2022/07/22 12:09:15;;;;;;;9.27;6.00;;;45.60;1.00;;;;;;5145957;27;20015;-49
2022/07/22 12:11:44;;;;;;;9.25;6.22;;;46.30;1.00;;;;;;5143325;27;20066;-51
2022/07/22 12:14:12;;;;;;;6.60;6.00;;;46.20;1.00;;;;;;5146760;27;20034;-53
2022/07/22 12:16:40;;;;;;;6.75;6.15;;;43.60;1.00;;;;;;5142093;27;20081;-54
2022/07/22 12:19:08;;;;;;;6.95;6.28;;;43.00;1.00;;;;;;5144125;27;20019;-52
2022/07/22 12:21:51;;;;;;;6.88;5.95;;;41.40;1.00;;;;;;5138834;27;20042;-52
2022/07/22 12:24:25;;;;;;;8.23;6.30;;;40.30;1.00;;;;;;5144917;27;20471;-49
2022/07/22 12:26:51;;;;;;;6.55;5.78;;;39.70;1.00;;;;;;5144018;27;20042;-52
2022/07/22 12:29:25;;;;;;;6.47;5.85;;;39.80;1.00;;;;;;5143199;27;20501;-55
2022/07/22 12:31:58;;;;;;;8.18;6.30;;;39.30;1.00;;;;;;5146837;27;20027;-58
2022/07/22 12:34:39;;;;;;;6.65;5.95;;;38.90;1.00;;;;;;5141734;27;20035;-58
2022/07/22 12:37:22;;;;;;;7.43;6.13;;;39.20;1.00;;;;;;5143690;27;20558;-59
2022/07/22 12:40:11;;;;;;;6.70;6.10;;;39.30;1.00;;;;;;5143193;27;20050;-60
2022/07/22 12:43:08;;;;;;;8.65;6.60;;;39.30;1.00;;;;;;5143780;27;20503;-58
2022/07/22 12:45:36;;;;;;;6.28;5.50;;;38.90;1.00;;;;;;5139889;27;20035;-60
2022/07/22 12:48:03;;;;;;;6.22;5.30;;;38.60;1.00;;;;;;5141150;27;20118;-63
2022/07/22 12:50:30;;;;;;;7.47;6.00;;;38.60;1.00;;;;;;5143673;27;20043;-61
2022/07/22 12:52:56;;;;;;;6.03;5.45;;;38.80;1.00;;;;;;5147244;27;20046;-59
2022/07/22 12:55:22;;;;;;;6.20;5.60;;;38.60;1.00;;;;;;5142664;27;20026;-58